Time;durP1;ratioP1;P1;durP2;ratioP2;P2;SDS_P1;SDS_P2;PMS_P1;PMS_P2;Temp;Humidity;BMP_temperature;BMP_pressure;BME280_temperature;BME280_humidity;BME280_pressure;Samples;Min_cycle;Max_cycle;Signal;HPM_P1;HPM_P2
2023/06/25 00:01:47;;;;;;;4.93;4.45;;;;;;;;;;5052203;28;20202;-82
2023/06/25 00:04:14;;;;;;;4.68;4.15;;;;;;;;;;5051702;28;20230;-82
2023/06/25 00:06:42;;;;;;;7.68;4.65;;;;;;;;;;5044406;28;20213;-82
2023/06/25 00:09:09;;;;;;;5.57;4.45;;;;;;;;;;5031807;28;20237;-82
2023/06/25 00:11:36;;;;;;;5.15;4.65;;;;;;;;;;5032373;28;20206;-82
2023/06/25 00:14:03;;;;;;;5.03;4.55;;;;;;;;;;5031381;28;20234;-82
2023/06/25 00:16:33;;;;;;;6.25;4.45;;;;;;;;;;5032128;28;20206;-82
2023/06/25 00:19:00;;;;;;;5.50;5.00;;;;;;;;;;5031615;28;20664;-83
2023/06/25 00:21:27;;;;;;;5.45;4.43;;;;;;;;;;5032356;28;20639;-83
2023/06/25 00:23:55;;;;;;;5.22;4.63;;;;;;;;;;5031610;28;20230;-83
2023/06/25 00:26:23;;;;;;;6.70;4.70;;;;;;;;;;5031789;28;20226;-83
2023/06/25 00:28:50;;;;;;;6.10;4.38;;;;;;;;;;5031604;28;20230;-83
2023/06/25 00:31:17;;;;;;;5.93;4.63;;;;;;;;;;5032068;28;20642;-83
2023/06/25 00:33:49;;;;;;;4.93;4.45;;;;;;;;;;5031208;28;20230;-83
2023/06/25 00:36:16;;;;;;;5.10;4.60;;;;;;;;;;5034230;28;20289;-83
2023/06/25 00:38:44;;;;;;;5.30;4.80;;;;;;;;;;5030395;28;20723;-83
2023/06/25 00:41:13;;;;;;;4.78;4.38;;;;;;;;;;5040962;28;20217;-83
2023/06/25 00:43:41;;;;;;;5.68;4.60;;;;;;;;;;5051166;28;20242;-83
2023/06/25 00:46:12;;;;;;;8.43;4.53;;;;;;;;;;5048485;28;20253;-83
2023/06/25 00:48:39;;;;;;;7.38;4.60;;;;;;;;;;5035035;28;20241;-83
2023/06/25 00:51:06;;;;;;;5.05;4.43;;;;;;;;;;5051185;28;20779;-83
2023/06/25 00:53:35;;;;;;;5.45;4.95;;;;;;;;;;5050450;28;20711;-83
2023/06/25 00:56:02;;;;;;;6.43;4.78;;;;;;;;;;5050918;28;20197;-83
2023/06/25 00:58:34;;;;;;;5.50;4.90;;;;;;;;;;5040709;28;20237;-83
2023/06/25 01:01:01;;;;;;;10.45;4.68;;;;;;;;;;5032016;28;20206;-83
2023/06/25 01:03:31;;;;;;;5.37;4.43;;;;;;;;;;5034024;28;20226;-83
2023/06/25 01:06:04;;;;;;;4.85;4.45;;;;;;;;;;5034198;28;20210;-83
2023/06/25 01:08:31;;;;;;;4.97;4.47;;;;;;;;;;5036556;28;20236;-83
2023/06/25 01:10:58;;;;;;;5.25;4.75;;;;;;;;;;5043823;28;20202;-82
2023/06/25 01:13:25;;;;;;;6.40;5.80;;;;;;;;;;5035366;28;20226;-83
2023/06/25 01:15:55;;;;;;;8.25;4.75;;;;;;;;;;5031370;28;20242;-83
2023/06/25 01:18:23;;;;;;;5.43;4.93;;;;;;;;;;5039995;28;20517;-83
2023/06/25 01:20:52;;;;;;;5.35;4.90;;;;;;;;;;5047981;28;20308;-83
2023/06/25 01:23:21;;;;;;;4.90;4.40;;;;;;;;;;5051027;28;20247;-82
2023/06/25 01:25:49;;;;;;;6.13;5.00;;;;;;;;;;5050619;28;20726;-83
2023/06/25 01:28:20;;;;;;;5.95;4.97;;;;;;;;;;5045231;28;20206;-83
2023/06/25 01:30:47;;;;;;;5.00;4.50;;;;;;;;;;5031902;28;20195;-82
2023/06/25 01:33:15;;;;;;;5.20;4.70;;;;;;;;;;5049239;28;20212;-83
2023/06/25 01:35:43;;;;;;;6.70;4.83;;;;;;;;;;5045336;28;20219;-83
2023/06/25 01:38:10;;;;;;;6.30;4.87;;;;;;;;;;5050133;28;20229;-84
2023/06/25 01:40:39;;;;;;;5.93;5.33;;;;;;;;;;5050924;28;20645;-83
2023/06/25 01:43:06;;;;;;;15.60;5.77;;;;;;;;;;5027478;28;20255;-83
2023/06/25 01:45:33;;;;;;;5.50;4.90;;;;;;;;;;5044567;28;20601;-82
2023/06/25 01:48:00;;;;;;;5.40;4.90;;;;;;;;;;5040468;28;20555;-81
2023/06/25 01:50:27;;;;;;;5.47;4.93;;;;;;;;;;5045776;28;20233;-81
2023/06/25 01:52:54;;;;;;;5.47;4.97;;;;;;;;;;5026062;28;20207;-81
2023/06/25 01:55:21;;;;;;;5.27;4.77;;;;;;;;;;5050279;28;20249;-81
2023/06/25 01:57:49;;;;;;;6.67;4.60;;;;;;;;;;5046870;28;20199;-82
2023/06/25 02:00:17;;;;;;;5.77;5.07;;;;;;;;;;5052261;28;20615;-82
2023/06/25 02:02:44;;;;;;;4.83;4.43;;;;;;;;;;5052968;28;20578;-82
2023/06/25 02:05:11;;;;;;;5.70;5.10;;;;;;;;;;5033820;28;20274;-81
2023/06/25 02:07:38;;;;;;;5.87;5.10;;;;;;;;;;5034221;28;20214;-81
2023/06/25 02:10:05;;;;;;;6.47;5.00;;;;;;;;;;5033765;28;20241;-82
2023/06/25 02:12:33;;;;;;;6.63;4.70;;;;;;;;;;5034607;28;20293;-82
2023/06/25 02:15:01;;;;;;;6.17;5.20;;;;;;;;;;5033477;28;20239;-82
2023/06/25 02:17:28;;;;;;;6.00;4.90;;;;;;;;;;5034330;28;20214;-82
2023/06/25 02:19:55;;;;;;;7.93;5.30;;;;;;;;;;5033725;28;20253;-82
2023/06/25 02:22:22;;;;;;;6.53;5.37;;;;;;;;;;5047995;28;20206;-82
2023/06/25 02:24:49;;;;;;;6.53;5.27;;;;;;;;;;5053536;28;20264;-81
2023/06/25 02:27:16;;;;;;;7.60;5.37;;;;;;;;;;5052458;28;20233;-82
2023/06/25 02:29:43;;;;;;;7.07;5.30;;;;;;;;;;5051342;28;20704;-82
2023/06/25 02:32:12;;;;;;;9.60;5.17;;;;;;;;;;5033830;28;20213;-82
2023/06/25 02:34:39;;;;;;;6.03;5.37;;;;;;;;;;5033476;28;20238;-82
2023/06/25 02:37:13;;;;;;;6.23;5.47;;;;;;;;;;5034051;28;20214;-82
2023/06/25 02:39:40;;;;;;;6.73;5.33;;;;;;;;;;5053379;28;20229;-82
2023/06/25 02:42:07;;;;;;;5.60;5.10;;;;;;;;;;5053582;28;20206;-84
2023/06/25 02:44:34;;;;;;;5.47;4.97;;;;;;;;;;5048265;28;20234;-83
2023/06/25 02:47:01;;;;;;;7.50;5.97;;;;;;;;;;5048426;28;20308;-82
2023/06/25 02:49:31;;;;;;;6.10;5.50;;;;;;;;;;5013558;28;20246;-82
2023/06/25 02:51:58;;;;;;;9.50;5.77;;;;;;;;;;5020125;28;20231;-80
2023/06/25 02:54:25;;;;;;;6.40;5.80;;;;;;;;;;5032807;28;20237;-81
2023/06/25 02:56:52;;;;;;;8.67;6.03;;;;;;;;;;5049365;28;20202;-81
2023/06/25 02:59:19;;;;;;;8.23;5.53;;;;;;;;;;5052881;28;20279;-81
2023/06/25 03:01:47;;;;;;;6.77;5.80;;;;;;;;;;5045736;28;20279;-81
2023/06/25 03:04:14;;;;;;;5.73;5.13;;;;;;;;;;5051065;28;20757;-81
2023/06/25 03:06:43;;;;;;;7.83;5.50;;;;;;;;;;5038057;28;20194;-83
2023/06/25 03:09:10;;;;;;;7.40;5.63;;;;;;;;;;5046842;28;20734;-81
2023/06/25 03:11:37;;;;;;;6.87;5.13;;;;;;;;;;5036075;28;20206;-81
2023/06/25 03:14:04;;;;;;;8.73;5.33;;;;;;;;;;5032847;28;20253;-80
2023/06/25 03:16:32;;;;;;;7.93;6.43;;;;;;;;;;5033070;28;20585;-82
2023/06/25 03:18:59;;;;;;;8.20;5.43;;;;;;;;;;5032583;28;20727;-82
2023/06/25 03:21:26;;;;;;;5.43;4.90;;;;;;;;;;5033392;28;20631;-82
2023/06/25 03:23:55;;;;;;;5.83;5.33;;;;;;;;;;5032382;28;20230;-82
2023/06/25 03:26:22;;;;;;;5.73;5.07;;;;;;;;;;5032743;28;20582;-82
2023/06/25 03:28:50;;;;;;;6.30;5.70;;;;;;;;;;5032503;28;20249;-81
2023/06/25 03:31:17;;;;;;;7.50;5.10;;;;;;;;;;5032915;28;20211;-85
2023/06/25 03:33:45;;;;;;;8.60;5.23;;;;;;;;;;5032223;28;20687;-83
2023/06/25 03:36:12;;;;;;;6.50;5.83;;;;;;;;;;5032781;28;20219;-83
2023/06/25 03:38:39;;;;;;;7.83;5.50;;;;;;;;;;5032215;28;20603;-83
2023/06/25 03:41:08;;;;;;;6.63;5.73;;;;;;;;;;5031062;28;20609;-82
2023/06/25 03:43:35;;;;;;;6.57;5.47;;;;;;;;;;5024355;28;20237;-84
2023/06/25 03:46:02;;;;;;;8.03;5.93;;;;;;;;;;5035664;28;20191;-83
2023/06/25 03:48:29;;;;;;;9.63;5.97;;;;;;;;;;5037920;28;20241;-82
2023/06/25 03:50:56;;;;;;;7.60;5.70;;;;;;;;;;5047170;28;20259;-81
2023/06/25 03:53:23;;;;;;;6.13;5.53;;;;;;;;;;5031773;28;20241;-81
2023/06/25 03:55:50;;;;;;;6.07;5.47;;;;;;;;;;5032499;28;20215;-80
2023/06/25 03:58:19;;;;;;;7.03;5.00;;;;;;;;;;5031349;28;20211;-81
2023/06/25 04:00:46;;;;;;;6.63;5.57;;;;;;;;;;5032432;28;20194;-80
2023/06/25 04:03:13;;;;;;;7.63;5.43;;;;;;;;;;5037321;28;20198;-81
2023/06/25 04:05:40;;;;;;;7.63;5.93;;;;;;;;;;5051902;28;20586;-82
2023/06/25 04:08:08;;;;;;;13.07;6.83;;;;;;;;;;5039492;28;20209;-84
2023/06/25 04:10:35;;;;;;;5.90;5.30;;;;;;;;;;5038617;28;20206;-83
2023/06/25 04:13:02;;;;;;;11.83;5.60;;;;;;;;;;5032217;28;20210;-83
2023/06/25 04:15:30;;;;;;;7.87;4.77;;;;;;;;;;5031423;28;20242;-84
2023/06/25 04:17:57;;;;;;;6.03;5.43;;;;;;;;;;5031696;28;20685;-83
2023/06/25 04:20:27;;;;;;;7.60;5.73;;;;;;;;;;5031110;28;20912;-82
2023/06/25 04:22:54;;;;;;;7.60;5.40;;;;;;;;;;5031562;28;20207;-82
2023/06/25 04:25:21;;;;;;;6.50;5.50;;;;;;;;;;5031081;28;20237;-82
2023/06/25 04:27:49;;;;;;;10.13;5.73;;;;;;;;;;5031584;28;20550;-83
2023/06/25 04:30:16;;;;;;;6.00;5.40;;;;;;;;;;5031299;28;20245;-82
2023/06/25 04:32:44;;;;;;;6.17;5.53;;;;;;;;;;5032076;28;20217;-83
2023/06/25 04:35:11;;;;;;;13.27;6.43;;;;;;;;;;5030898;28;20238;-82
2023/06/25 04:37:38;;;;;;;7.20;6.30;;;;;;;;;;5031747;28;20210;-83
2023/06/25 04:40:07;;;;;;;8.20;6.33;;;;;;;;;;5031121;28;20632;-82
2023/06/25 04:42:34;;;;;;;7.70;6.20;;;;;;;;;;5031680;28;20207;-83
2023/06/25 04:45:01;;;;;;;8.40;6.77;;;;;;;;;;5031028;28;20242;-83
2023/06/25 04:47:28;;;;;;;11.17;6.67;;;;;;;;;;5031582;28;20261;-82
2023/06/25 04:49:57;;;;;;;18.10;7.87;;;;;;;;;;5031142;28;20257;-82
2023/06/25 04:52:24;;;;;;;7.57;6.67;;;;;;;;;;5031488;28;20213;-82
2023/06/25 04:54:51;;;;;;;8.83;7.87;;;;;;;;;;5030728;28;20238;-82
2023/06/25 04:57:18;;;;;;;8.20;6.67;;;;;;;;;;5031310;28;20213;-83
2023/06/25 04:59:45;;;;;;;11.17;7.67;;;;;;;;;;5031012;28;20280;-82
2023/06/25 05:02:12;;;;;;;13.90;7.47;;;;;;;;;;5031368;28;20209;-82
2023/06/25 05:04:39;;;;;;;8.17;7.37;;;;;;;;;;5031028;28;20265;-82
2023/06/25 05:07:07;;;;;;;10.93;7.80;;;;;;;;;;5031494;28;20202;-82
2023/06/25 05:09:34;;;;;;;8.57;7.70;;;;;;;;;;5030940;28;20245;-82
2023/06/25 05:12:02;;;;;;;13.47;8.33;;;;;;;;;;5031368;28;20254;-82
2023/06/25 05:14:30;;;;;;;11.93;7.93;;;;;;;;;;5030786;28;20238;-83
2023/06/25 05:16:57;;;;;;;9.83;8.20;;;;;;;;;;5031474;28;20226;-82
2023/06/25 05:19:24;;;;;;;11.33;8.60;;;;;;;;;;5030841;28;20249;-82
2023/06/25 05:21:51;;;;;;;14.10;8.17;;;;;;;;;;5031123;28;20209;-82
2023/06/25 05:24:20;;;;;;;13.73;8.90;;;;;;;;;;5030556;28;20708;-82
2023/06/25 05:26:47;;;;;;;10.20;8.13;;;;;;;;;;5031361;28;20207;-82
2023/06/25 05:29:14;;;;;;;9.43;8.27;;;;;;;;;;5030767;28;20242;-82
2023/06/25 05:31:41;;;;;;;11.00;8.43;;;;;;;;;;5031198;28;20215;-82
2023/06/25 05:34:08;;;;;;;10.40;8.43;;;;;;;;;;5032246;28;20239;-83
2023/06/25 05:36:35;;;;;;;9.80;7.90;;;;;;;;;;5034668;28;20234;-82
2023/06/25 05:39:02;;;;;;;9.53;7.63;;;;;;;;;;5034451;28;20226;-82
2023/06/25 05:41:30;;;;;;;12.67;7.80;;;;;;;;;;5034866;28;20218;-82
2023/06/25 05:43:57;;;;;;;11.30;7.33;;;;;;;;;;5034374;28;20242;-82
2023/06/25 05:46:24;;;;;;;9.07;6.93;;;;;;;;;;5034595;28;20198;-82
2023/06/25 05:48:51;;;;;;;7.77;6.80;;;;;;;;;;5034442;28;20237;-82
2023/06/25 05:51:18;;;;;;;8.47;6.77;;;;;;;;;;5034856;28;20207;-82
2023/06/25 05:53:45;;;;;;;8.33;7.00;;;;;;;;;;5033944;28;20230;-82
2023/06/25 05:56:13;;;;;;;8.63;7.00;;;;;;;;;;5034492;28;20302;-82
2023/06/25 05:58:41;;;;;;;11.93;6.30;;;;;;;;;;5033905;28;20261;-82
2023/06/25 06:01:08;;;;;;;10.57;6.27;;;;;;;;;;5034308;28;20207;-82
2023/06/25 06:03:35;;;;;;;7.40;6.63;;;;;;;;;;5034055;28;20276;-82
2023/06/25 06:06:02;;;;;;;6.93;6.18;;;;;;;;;;5034619;28;20203;-82
2023/06/25 06:08:29;;;;;;;7.45;6.13;;;;;;;;;;5033801;28;20238;-82
2023/06/25 06:10:56;;;;;;;5.88;4.78;;;;;;;;;;5034274;28;20253;-83
2023/06/25 06:13:23;;;;;;;6.90;5.75;;;;;;;;;;5033427;28;20237;-82
2023/06/25 06:15:52;;;;;;;6.60;5.90;;;;;;;;;;5034101;28;20231;-82
2023/06/25 06:18:19;;;;;;;8.95;5.50;;;;;;;;;;5033589;28;20210;-82
2023/06/25 06:20:46;;;;;;;5.88;5.10;;;;;;;;;;5034501;28;20207;-82
2023/06/25 06:23:13;;;;;;;6.25;4.75;;;;;;;;;;5033638;28;20581;-83
2023/06/25 06:25:40;;;;;;;5.13;4.53;;;;;;;;;;5034036;28;20210;-83
2023/06/25 06:28:07;;;;;;;5.40;4.70;;;;;;;;;;5033279;28;20543;-84
2023/06/25 06:30:34;;;;;;;5.05;4.55;;;;;;;;;;5033988;28;20211;-83
2023/06/25 06:33:02;;;;;;;4.70;4.30;;;;;;;;;;5033937;28;20203;-83
2023/06/25 06:35:29;;;;;;;4.97;4.47;;;;;;;;;;5033194;28;20257;-83
2023/06/25 06:37:56;;;;;;;4.80;4.22;;;;;;;;;;5033655;28;20207;-82
2023/06/25 06:40:24;;;;;;;4.78;4.20;;;;;;;;;;5033039;28;20234;-83
2023/06/25 06:42:51;;;;;;;6.80;4.22;;;;;;;;;;5033809;28;20214;-83
2023/06/25 06:45:18;;;;;;;4.97;4.40;;;;;;;;;;5032158;28;20243;-83
2023/06/25 06:47:45;;;;;;;6.40;4.05;;;;;;;;;;5033603;28;20218;-82
2023/06/25 06:50:13;;;;;;;5.55;4.05;;;;;;;;;;5032770;28;20271;-83
2023/06/25 06:52:43;;;;;;;4.45;3.90;;;;;;;;;;5033617;28;20218;-82
2023/06/25 06:55:10;;;;;;;5.47;3.90;;;;;;;;;;5032691;28;20606;-83
2023/06/25 06:57:37;;;;;;;4.32;3.92;;;;;;;;;;5033114;28;20254;-82
2023/06/25 07:00:05;;;;;;;4.35;3.92;;;;;;;;;;5032948;28;20278;-82
2023/06/25 07:02:32;;;;;;;4.45;4.03;;;;;;;;;;5033360;28;20207;-82
2023/06/25 07:04:59;;;;;;;4.35;3.95;;;;;;;;;;5032848;28;20245;-82
2023/06/25 07:07:27;;;;;;;4.75;4.18;;;;;;;;;;5033196;28;20203;-82
2023/06/25 07:09:55;;;;;;;4.55;3.92;;;;;;;;;;5032642;28;20238;-83
2023/06/25 07:12:22;;;;;;;4.32;3.92;;;;;;;;;;5032664;28;20206;-82
2023/06/25 07:14:49;;;;;;;5.22;4.03;;;;;;;;;;5032319;28;20731;-82
2023/06/25 07:17:16;;;;;;;5.50;3.70;;;;;;;;;;5032773;28;20238;-82
2023/06/25 07:19:43;;;;;;;4.05;3.70;;;;;;;;;;5032521;28;20738;-82
2023/06/25 07:22:10;;;;;;;4.07;3.65;;;;;;;;;;5032783;28;20206;-82
2023/06/25 07:24:39;;;;;;;4.05;3.63;;;;;;;;;;5032453;28;20234;-82
2023/06/25 07:27:06;;;;;;;7.90;3.80;;;;;;;;;;5033030;28;20574;-83
2023/06/25 07:29:33;;;;;;;4.35;3.75;;;;;;;;;;5032231;28;20235;-83
2023/06/25 07:32:00;;;;;;;4.45;3.45;;;;;;;;;;5032906;28;20211;-82
2023/06/25 07:34:27;;;;;;;3.53;3.22;;;;;;;;;;5031889;28;20333;-83
2023/06/25 07:36:54;;;;;;;4.10;3.70;;;;;;;;;;5032467;28;20234;-83
2023/06/25 07:39:24;;;;;;;3.75;3.25;;;;;;;;;;5031750;28;20234;-83
2023/06/25 07:41:53;;;;;;;4.18;3.78;;;;;;;;;;5032614;28;20296;-83
2023/06/25 07:44:20;;;;;;;4.32;3.92;;;;;;;;;;5031709;28;20250;-83
2023/06/25 07:46:47;;;;;;;3.80;3.10;;;;;;;;;;5032635;28;20413;-83
2023/06/25 07:49:14;;;;;;;3.72;3.33;;;;;;;;;;5032233;28;20230;-83
2023/06/25 07:51:42;;;;;;;4.35;3.92;;;;;;;;;;5032829;28;20210;-83
2023/06/25 07:54:09;;;;;;;4.00;3.60;;;;;;;;;;5031893;28;20238;-83
2023/06/25 07:56:36;;;;;;;4.63;4.05;;;;;;;;;;5031905;28;20226;-83
2023/06/25 07:59:04;;;;;;;4.10;3.70;;;;;;;;;;5031526;28;20238;-83
2023/06/25 08:01:31;;;;;;;4.65;3.65;;;;;;;;;;5032266;28;20199;-83
2023/06/25 08:03:59;;;;;;;4.32;4.00;;;;;;;;;;5031763;28;20234;-83
2023/06/25 08:06:26;;;;;;;4.15;3.78;;;;;;;;;;5031928;28;20203;-83
2023/06/25 08:08:53;;;;;;;4.85;3.65;;;;;;;;;;5031919;28;20230;-83
2023/06/25 08:11:20;;;;;;;3.80;3.40;;;;;;;;;;5032539;28;20210;-83
2023/06/25 08:13:47;;;;;;;3.90;3.45;;;;;;;;;;5031798;28;20238;-83
2023/06/25 08:16:16;;;;;;;4.85;4.18;;;;;;;;;;5032162;28;20238;-83
2023/06/25 08:18:43;;;;;;;4.15;3.47;;;;;;;;;;5031618;28;20234;-83
2023/06/25 08:21:12;;;;;;;3.58;3.28;;;;;;;;;;5031812;28;20697;-83
2023/06/25 08:23:39;;;;;;;4.60;4.20;;;;;;;;;;5031527;28;20237;-82
2023/06/25 08:26:06;;;;;;;4.63;4.05;;;;;;;;;;5032018;28;20218;-83
2023/06/25 08:28:33;;;;;;;4.50;4.05;;;;;;;;;;5031314;28;20226;-84
2023/06/25 08:31:00;;;;;;;4.20;3.80;;;;;;;;;;5031621;28;20298;-83
2023/06/25 08:33:28;;;;;;;4.65;3.42;;;;;;;;;;5031422;28;20245;-83
2023/06/25 08:35:57;;;;;;;3.67;3.38;;;;;;;;;;5031934;28;20207;-82
2023/06/25 08:38:24;;;;;;;3.72;3.42;;;;;;;;;;5030831;28;20722;-84
2023/06/25 08:40:53;;;;;;;3.80;3.50;;;;;;;;;;5031759;28;20691;-83
2023/06/25 08:43:21;;;;;;;3.65;3.35;;;;;;;;;;5031325;28;20214;-83
2023/06/25 08:45:48;;;;;;;4.47;3.50;;;;;;;;;;5031847;28;20217;-83
2023/06/25 08:48:15;;;;;;;4.20;3.80;;;;;;;;;;5030924;28;20203;-84
2023/06/25 08:50:44;;;;;;;3.97;3.58;;;;;;;;;;5031459;28;20202;-83
2023/06/25 08:53:11;;;;;;;3.85;3.42;;;;;;;;;;5030917;28;20215;-83
2023/06/25 08:55:39;;;;;;;4.00;3.58;;;;;;;;;;5031535;28;20669;-83
2023/06/25 08:58:06;;;;;;;5.07;3.30;;;;;;;;;;5031737;28;20222;-83
2023/06/25 09:00:33;;;;;;;3.63;3.33;;;;;;;;;;5031783;28;20237;-84
2023/06/25 09:03:00;;;;;;;3.50;3.20;;;;;;;;;;5031861;28;20213;-84
2023/06/25 09:05:28;;;;;;;3.80;3.30;;;;;;;;;;5030856;28;20243;-84
2023/06/25 09:07:57;;;;;;;3.35;3.05;;;;;;;;;;5031455;28;20225;-83
2023/06/25 09:10:24;;;;;;;3.80;3.50;;;;;;;;;;5035084;28;20291;-84
2023/06/25 09:12:52;;;;;;;4.65;3.40;;;;;;;;;;5035579;28;20211;-83
2023/06/25 09:15:23;;;;;;;3.30;3.00;;;;;;;;;;5034923;28;20242;-84
2023/06/25 09:17:50;;;;;;;3.80;3.50;;;;;;;;;;5035641;28;20635;-84
2023/06/25 09:20:18;;;;;;;3.53;3.15;;;;;;;;;;5035031;28;20234;-84
2023/06/25 09:22:51;;;;;;;4.20;3.90;;;;;;;;;;5035555;28;20661;-84
2023/06/25 09:25:20;;;;;;;5.95;3.25;;;;;;;;;;5034717;28;20262;-84
2023/06/25 09:27:48;;;;;;;3.55;3.20;;;;;;;;;;5035281;28;20209;-83
2023/06/25 09:30:18;;;;;;;3.47;3.17;;;;;;;;;;5034852;28;20238;-84
2023/06/25 09:32:51;;;;;;;4.45;2.95;;;;;;;;;;5035340;28;20260;-81
2023/06/25 09:35:21;;;;;;;4.05;3.10;;;;;;;;;;5034161;28;20241;-82
2023/06/25 09:37:48;;;;;;;3.95;3.60;;;;;;;;;;5034673;28;20694;-83
2023/06/25 09:40:16;;;;;;;3.88;3.10;;;;;;;;;;5034379;28;20648;-82
2023/06/25 09:42:45;;;;;;;3.45;3.15;;;;;;;;;;5035004;28;20213;-82
2023/06/25 09:45:14;;;;;;;3.78;2.90;;;;;;;;;;5034178;28;20242;-82
2023/06/25 09:47:42;;;;;;;3.53;3.22;;;;;;;;;;5034541;28;20214;-82
2023/06/25 09:50:13;;;;;;;3.88;3.38;;;;;;;;;;5034296;28;20245;-82
2023/06/25 09:52:41;;;;;;;3.30;3.00;;;;;;;;;;5034793;28;20214;-82
2023/06/25 09:55:10;;;;;;;3.40;3.10;;;;;;;;;;5033898;28;20242;-82
2023/06/25 09:57:37;;;;;;;3.92;3.10;;;;;;;;;;5034184;28;20321;-82
2023/06/25 10:00:09;;;;;;;3.17;2.90;;;;;;;;;;5034129;28;20238;-83
2023/06/25 10:02:36;;;;;;;3.70;3.40;;;;;;;;;;5034327;28;20206;-82
2023/06/25 10:05:03;;;;;;;4.47;3.45;;;;;;;;;;5033731;28;20241;-83
2023/06/25 10:07:30;;;;;;;3.30;3.00;;;;;;;;;;5034018;28;20210;-83
2023/06/25 10:09:58;;;;;;;3.15;2.95;;;;;;;;;;5033757;28;20237;-82
2023/06/25 10:12:25;;;;;;;4.55;3.38;;;;;;;;;;5034352;28;20213;-82
2023/06/25 10:14:54;;;;;;;3.05;2.85;;;;;;;;;;5033675;28;20264;-82
2023/06/25 10:17:24;;;;;;;3.88;2.85;;;;;;;;;;5033906;28;20226;-82
2023/06/25 10:19:54;;;;;;;3.10;2.90;;;;;;;;;;5032803;28;20241;-82
2023/06/25 10:22:23;;;;;;;3.80;3.40;;;;;;;;;;5034065;28;20212;-83
2023/06/25 10:24:50;;;;;;;3.03;2.83;;;;;;;;;;5033544;28;20249;-81
2023/06/25 10:27:29;;;;;;;3.45;2.90;;;;;;;;;;5033802;28;20210;-82
2023/06/25 10:29:57;;;;;;;4.30;3.38;;;;;;;;;;5033584;28;20610;-82
2023/06/25 10:32:26;;;;;;;3.40;3.10;;;;;;;;;;5033829;28;20202;-82
2023/06/25 10:34:54;;;;;;;3.25;2.90;;;;;;;;;;5033328;28;20242;-82
2023/06/25 10:37:21;;;;;;;3.60;2.95;;;;;;;;;;5033475;28;20284;-82
2023/06/25 10:39:48;;;;;;;5.32;3.30;;;;;;;;;;5033433;28;20647;-82
2023/06/25 10:42:15;;;;;;;2.97;2.78;;;;;;;;;;5033814;28;20206;-83
2023/06/25 10:44:42;;;;;;;3.28;2.97;;;;;;;;;;5033015;28;20241;-81
2023/06/25 10:47:10;;;;;;;3.60;3.25;;;;;;;;;;5033492;28;20293;-81
2023/06/25 10:49:39;;;;;;;3.28;2.97;;;;;;;;;;5033046;28;20264;-81
2023/06/25 10:52:07;;;;;;;3.60;3.30;;;;;;;;;;5033571;28;20202;-82
2023/06/25 10:54:34;;;;;;;2.95;2.75;;;;;;;;;;5032700;28;20716;-82
2023/06/25 10:57:08;;;;;;;3.45;3.15;;;;;;;;;;5033131;28;20676;-82
2023/06/25 10:59:35;;;;;;;2.85;2.65;;;;;;;;;;5032805;28;20663;-82
2023/06/25 11:02:12;;;;;;;3.38;2.72;;;;;;;;;;5033587;28;20206;-82
2023/06/25 11:04:40;;;;;;;3.35;3.05;;;;;;;;;;5032580;28;20707;-82
2023/06/25 11:07:07;;;;;;;4.65;3.10;;;;;;;;;;5033356;28;20233;-82
2023/06/25 11:09:34;;;;;;;3.22;2.92;;;;;;;;;;5032748;28;20268;-81
2023/06/25 11:12:01;;;;;;;3.80;3.00;;;;;;;;;;5033189;28;20218;-82
2023/06/25 11:14:28;;;;;;;2.75;2.50;;;;;;;;;;5032462;28;20268;-81
2023/06/25 11:16:55;;;;;;;2.80;2.60;;;;;;;;;;5032750;28;20206;-82
2023/06/25 11:19:25;;;;;;;3.45;3.15;;;;;;;;;;5032508;28;20304;-82
2023/06/25 11:21:53;;;;;;;2.72;2.53;;;;;;;;;;5032954;28;20602;-82
2023/06/25 11:24:21;;;;;;;4.07;3.05;;;;;;;;;;5032334;28;20388;-81
2023/06/25 11:26:48;;;;;;;3.40;3.10;;;;;;;;;;5032876;28;20312;-82
2023/06/25 11:29:15;;;;;;;2.78;2.58;;;;;;;;;;5032429;28;20315;-82
2023/06/25 11:31:42;;;;;;;3.25;2.95;;;;;;;;;;5032407;28;20691;-81
2023/06/25 11:34:11;;;;;;;3.72;3.40;;;;;;;;;;5032225;28;20238;-81
2023/06/25 11:36:38;;;;;;;3.60;3.22;;;;;;;;;;5032349;28;20214;-81
2023/06/25 11:39:09;;;;;;;3.42;2.95;;;;;;;;;;5032316;28;20257;-82
2023/06/25 11:41:37;;;;;;;3.22;2.92;;;;;;;;;;5032665;28;20301;-82
2023/06/25 11:44:04;;;;;;;4.05;3.20;;;;;;;;;;5031858;28;20241;-82
2023/06/25 11:46:31;;;;;;;4.03;3.13;;;;;;;;;;5032070;28;20598;-82
2023/06/25 11:48:58;;;;;;;4.60;3.25;;;;;;;;;;5031834;28;20230;-80
2023/06/25 11:51:25;;;;;;;5.00;3.05;;;;;;;;;;5032305;28;20209;-79
2023/06/25 11:53:52;;;;;;;3.55;3.22;;;;;;;;;;5031649;28;20238;-81
2023/06/25 11:56:20;;;;;;;3.15;2.85;;;;;;;;;;5031970;28;20629;-81
2023/06/25 11:58:48;;;;;;;3.30;3.00;;;;;;;;;;5031631;28;20242;-80
2023/06/25 12:01:15;;;;;;;3.38;3.05;;;;;;;;;;5032173;28;20668;-82
2023/06/25 12:03:42;;;;;;;3.75;3.17;;;;;;;;;;5031479;28;20260;-82
2023/06/25 12:06:09;;;;;;;4.55;3.20;;;;;;;;;;5031956;28;20553;-82
2023/06/25 12:08:36;;;;;;;3.55;3.25;;;;;;;;;;5031597;28;20595;-82
2023/06/25 12:11:03;;;;;;;3.55;3.25;;;;;;;;;;5032397;28;20619;-82
2023/06/25 12:13:31;;;;;;;4.97;3.13;;;;;;;;;;5031496;28;20244;-83
2023/06/25 12:15:58;;;;;;;3.03;2.83;;;;;;;;;;5032140;28;20213;-82
2023/06/25 12:18:25;;;;;;;6.63;3.38;;;;;;;;;;5031198;28;20226;-82
2023/06/25 12:20:52;;;;;;;3.13;2.92;;;;;;;;;;5032050;28;20213;-82
2023/06/25 12:23:20;;;;;;;6.15;3.25;;;;;;;;;;5031290;28;20206;-81
2023/06/25 12:25:47;;;;;;;3.58;2.97;;;;;;;;;;5031767;28;20457;-81
2023/06/25 12:28:14;;;;;;;3.60;3.30;;;;;;;;;;5030951;28;20217;-82
2023/06/25 12:30:42;;;;;;;3.33;3.10;;;;;;;;;;5031727;28;20695;-82
2023/06/25 12:33:09;;;;;;;3.38;3.05;;;;;;;;;;5031381;28;20205;-82
2023/06/25 12:35:36;;;;;;;2.85;2.65;;;;;;;;;;5031655;28;20210;-83
2023/06/25 12:38:03;;;;;;;5.28;3.40;;;;;;;;;;5031275;28;20226;-82
2023/06/25 12:40:30;;;;;;;3.42;3.13;;;;;;;;;;5031077;28;20234;-83
2023/06/25 12:42:59;;;;;;;2.83;2.63;;;;;;;;;;5031091;28;20592;-82
2023/06/25 12:45:26;;;;;;;4.72;3.05;;;;;;;;;;5030864;28;20265;-82
2023/06/25 12:47:55;;;;;;;3.03;2.83;;;;;;;;;;5031410;28;20202;-82
2023/06/25 12:50:22;;;;;;;3.47;3.20;;;;;;;;;;5031097;28;20727;-82
2023/06/25 12:52:49;;;;;;;2.80;2.60;;;;;;;;;;5031634;28;20210;-82
2023/06/25 12:55:16;;;;;;;2.70;2.50;;;;;;;;;;5030875;28;20233;-82
2023/06/25 12:57:43;;;;;;;8.77;3.38;;;;;;;;;;5031131;28;20226;-81
2023/06/25 13:00:10;;;;;;;18.80;3.53;;;;;;;;;;5030781;28;20260;-79
2023/06/25 13:02:39;;;;;;;3.15;2.95;;;;;;;;;;5031431;28;20209;-81
2023/06/25 13:05:07;;;;;;;3.28;3.00;;;;;;;;;;5031002;28;20241;-81
2023/06/25 13:07:35;;;;;;;3.10;2.72;;;;;;;;;;5031202;28;20672;-82
2023/06/25 13:10:02;;;;;;;3.33;2.90;;;;;;;;;;5030953;28;20262;-82
2023/06/25 13:12:29;;;;;;;3.30;3.00;;;;;;;;;;5031360;28;20209;-82
2023/06/25 13:14:56;;;;;;;3.22;2.97;;;;;;;;;;5030667;28;20613;-82
2023/06/25 13:17:23;;;;;;;3.30;3.10;;;;;;;;;;5031112;28;20234;-82
2023/06/25 13:19:50;;;;;;;4.32;2.85;;;;;;;;;;5030756;28;20257;-82
2023/06/25 13:22:19;;;;;;;3.20;2.90;;;;;;;;;;5031386;28;20206;-82
2023/06/25 13:24:46;;;;;;;5.47;3.03;;;;;;;;;;5030678;28;20237;-82
2023/06/25 13:27:13;;;;;;;3.30;2.97;;;;;;;;;;5030980;28;20576;-83
2023/06/25 13:29:41;;;;;;;2.88;2.67;;;;;;;;;;5030695;28;20549;-82
2023/06/25 13:32:08;;;;;;;3.55;3.25;;;;;;;;;;5031390;28;20225;-81
2023/06/25 13:34:35;;;;;;;6.30;3.63;;;;;;;;;;5030563;28;20712;-81
2023/06/25 13:37:03;;;;;;;3.47;3.20;;;;;;;;;;5031154;28;20217;-82
2023/06/25 13:39:31;;;;;;;4.47;2.97;;;;;;;;;;5030574;28;20241;-82
2023/06/25 13:41:58;;;;;;;3.65;3.35;;;;;;;;;;5031118;28;20241;-82
2023/06/25 13:44:25;;;;;;;3.42;3.13;;;;;;;;;;5030219;28;20234;-82
2023/06/25 13:46:52;;;;;;;3.17;2.88;;;;;;;;;;5030699;28;20716;-81
2023/06/25 13:49:19;;;;;;;3.88;3.00;;;;;;;;;;5030498;28;20225;-81
2023/06/25 13:51:46;;;;;;;3.58;2.65;;;;;;;;;;5031036;28;20210;-82
2023/06/25 13:54:13;;;;;;;2.90;2.67;;;;;;;;;;5030708;28;20230;-82
2023/06/25 13:56:44;;;;;;;3.50;3.20;;;;;;;;;;5034265;28;20217;-81
2023/06/25 13:59:11;;;;;;;3.25;2.95;;;;;;;;;;5033982;28;20321;-82
2023/06/25 14:01:40;;;;;;;2.88;2.67;;;;;;;;;;5034440;28;20202;-82
2023/06/25 14:04:07;;;;;;;4.03;3.28;;;;;;;;;;5033794;28;20270;-82
2023/06/25 14:06:34;;;;;;;3.03;2.78;;;;;;;;;;5034263;28;20704;-78
2023/06/25 14:09:01;;;;;;;3.72;3.42;;;;;;;;;;5033987;28;20256;-81
2023/06/25 14:11:28;;;;;;;10.35;3.85;;;;;;;;;;5034329;28;20242;-81
2023/06/25 14:13:57;;;;;;;3.83;3.05;;;;;;;;;;5033484;28;20230;-80
2023/06/25 14:16:25;;;;;;;3.47;3.17;;;;;;;;;;5034031;28;20210;-81
2023/06/25 14:18:52;;;;;;;3.60;3.30;;;;;;;;;;5033723;28;20285;-81
2023/06/25 14:21:19;;;;;;;3.67;2.88;;;;;;;;;;5034103;28;20237;-80
2023/06/25 14:23:46;;;;;;;3.45;3.08;;;;;;;;;;5033489;28;20239;-81
2023/06/25 14:26:13;;;;;;;3.35;3.05;;;;;;;;;;5033929;28;20210;-82
2023/06/25 14:28:40;;;;;;;3.22;3.03;;;;;;;;;;5033494;28;20241;-82
2023/06/25 14:31:09;;;;;;;3.55;3.25;;;;;;;;;;5034246;28;20207;-82
2023/06/25 14:33:36;;;;;;;3.50;3.20;;;;;;;;;;5033249;28;20231;-82
2023/06/25 14:36:03;;;;;;;3.55;3.05;;;;;;;;;;5033716;28;20206;-82
2023/06/25 14:38:30;;;;;;;4.53;3.05;;;;;;;;;;5033192;28;20263;-81
2023/06/25 14:40:58;;;;;;;7.88;3.22;;;;;;;;;;5033843;28;20202;-80
2023/06/25 14:43:25;;;;;;;4.15;3.00;;;;;;;;;;5033181;28;20241;-81
2023/06/25 14:45:52;;;;;;;10.63;3.90;;;;;;;;;;5033659;28;20218;-82